Time;durP1;ratioP1;P1;durP2;ratioP2;P2;SDS_P1;SDS_P2;PMS_P1;PMS_P2;Temp;Humidity;BMP_temperature;BMP_pressure;BME280_temperature;BME280_humidity;BME280_pressure;Samples;Min_cycle;Max_cycle;Signal;HPM_P1;HPM_P2
2023/07/20 00:00:20;;;;;;;7.95;4.07;;;12.50;99.90;;;;;;5043964;28;20629;-57
2023/07/20 00:02:51;;;;;;;6.93;4.05;;;12.40;99.90;;;;;;5038825;28;20510;-57
2023/07/20 00:05:21;;;;;;;6.35;4.07;;;12.40;99.90;;;;;;5040442;28;20041;-57
2023/07/20 00:07:51;;;;;;;7.13;4.78;;;12.30;99.90;;;;;;5040738;28;20072;-58
2023/07/20 00:10:19;;;;;;;6.70;4.50;;;12.30;99.90;;;;;;5041358;28;20408;-57
2023/07/20 00:12:47;;;;;;;7.80;4.30;;;12.30;99.90;;;;;;5044232;28;20049;-57
2023/07/20 00:15:15;;;;;;;6.88;4.15;;;12.30;99.90;;;;;;5044115;28;20037;-60
2023/07/20 00:17:44;;;;;;;4.10;3.33;;;12.30;99.90;;;;;;5042650;28;20053;-57
2023/07/20 00:20:13;;;;;;;8.40;4.28;;;12.30;99.90;;;;;;5043119;28;20044;-58
2023/07/20 00:22:41;;;;;;;4.82;3.88;;;12.20;99.90;;;;;;5044366;28;20060;-56
2023/07/20 00:25:11;;;;;;;5.50;3.78;;;12.20;99.90;;;;;;5045973;28;20057;-57
2023/07/20 00:27:39;;;;;;;6.43;3.83;;;12.20;99.90;;;;;;5047250;28;20045;-56
2023/07/20 00:30:07;;;;;;;5.95;3.78;;;12.20;99.90;;;;;;5047486;28;20044;-59
2023/07/20 00:32:34;;;;;;;4.63;3.60;;;12.20;99.90;;;;;;5044260;28;20504;-58
2023/07/20 00:35:02;;;;;;;6.63;4.03;;;12.20;99.90;;;;;;5033616;28;20372;-57
2023/07/20 00:37:30;;;;;;;5.68;4.00;;;12.20;99.90;;;;;;5046008;28;20053;-57
2023/07/20 00:39:59;;;;;;;8.38;4.75;;;12.30;99.90;;;;;;5050227;28;20049;-57
2023/07/20 00:42:27;;;;;;;6.35;4.13;;;12.30;99.90;;;;;;5050302;28;20053;-57
2023/07/20 00:44:54;;;;;;;7.78;4.13;;;12.30;99.90;;;;;;5045860;28;20045;-57
2023/07/20 00:47:22;;;;;;;10.00;4.35;;;12.40;99.90;;;;;;5046682;28;20518;-56
2023/07/20 00:49:51;;;;;;;9.05;4.82;;;12.40;99.90;;;;;;5050825;28;20041;-56
2023/07/20 00:52:23;;;;;;;7.15;4.43;;;12.40;99.90;;;;;;5032476;28;20052;-56
2023/07/20 00:54:52;;;;;;;9.23;4.75;;;12.50;99.90;;;;;;5044872;28;20046;-56
2023/07/20 00:57:20;;;;;;;7.15;4.03;;;12.50;99.90;;;;;;5049254;28;20032;-57
2023/07/20 00:59:48;;;;;;;7.85;5.03;;;12.50;99.90;;;;;;5043620;28;20374;-57
2023/07/20 01:02:15;;;;;;;8.60;4.47;;;12.60;99.90;;;;;;5043797;28;20044;-56
2023/07/20 01:04:43;;;;;;;7.20;4.20;;;12.60;99.90;;;;;;5028494;28;20486;-56
2023/07/20 01:07:23;;;;;;;7.75;4.43;;;12.60;99.90;;;;;;5048548;28;20487;-57
2023/07/20 01:10:09;;;;;;;5.97;3.72;;;12.70;99.90;;;;;;5041481;28;20424;-56
2023/07/20 01:12:43;;;;;;;9.73;4.72;;;12.70;99.90;;;;;;5045738;28;20053;-57
2023/07/20 01:15:10;;;;;;;8.15;4.20;;;12.80;99.90;;;;;;5045071;28;20056;-56
2023/07/20 01:17:38;;;;;;;8.20;4.30;;;12.80;99.90;;;;;;5050196;28;20052;-57
2023/07/20 01:20:13;;;;;;;8.10;4.60;;;12.80;99.90;;;;;;5047667;28;20041;-57
2023/07/20 01:23:02;;;;;;;9.07;4.00;;;12.80;99.90;;;;;;5028898;28;20057;-57
2023/07/20 01:25:42;;;;;;;7.28;4.68;;;12.80;99.90;;;;;;5047233;28;20496;-58
2023/07/20 01:29:10;;;;;;;8.45;4.00;;;12.90;99.90;;;;;;5050257;28;20033;-58
2023/07/20 01:31:39;;;;;;;5.20;3.45;;;12.90;99.90;;;;;;5040910;28;20061;-57
2023/07/20 01:34:09;;;;;;;11.52;3.72;;;12.90;99.90;;;;;;5048532;28;20049;-57
2023/07/20 01:36:38;;;;;;;7.55;3.50;;;12.90;99.90;;;;;;5047440;28;20037;-57
2023/07/20 01:39:06;;;;;;;9.52;3.97;;;12.90;99.90;;;;;;5051455;28;20040;-57
2023/07/20 01:41:34;;;;;;;10.52;3.47;;;12.90;99.90;;;;;;5044497;28;20060;-57
2023/07/20 01:44:04;;;;;;;7.85;3.35;;;12.90;99.90;;;;;;5034784;28;20045;-57
2023/07/20 01:46:31;;;;;;;4.93;3.92;;;12.90;99.90;;;;;;5045164;28;20044;-57
2023/07/20 01:48:59;;;;;;;7.50;3.42;;;12.90;99.90;;;;;;5051176;28;20056;-58
2023/07/20 01:51:27;;;;;;;9.18;3.75;;;12.90;99.90;;;;;;5053556;28;20037;-59
2023/07/20 01:53:54;;;;;;;6.60;3.70;;;12.90;99.90;;;;;;5053222;28;20120;-58
2023/07/20 01:56:22;;;;;;;5.85;3.42;;;12.90;99.90;;;;;;5048749;28;20040;-59
2023/07/20 01:58:50;;;;;;;5.28;3.67;;;12.90;99.90;;;;;;5047100;28;20040;-58
2023/07/20 02:01:18;;;;;;;4.70;3.50;;;13.00;99.90;;;;;;5051180;28;20045;-58
2023/07/20 02:03:45;;;;;;;6.35;3.75;;;13.00;99.90;;;;;;5051698;28;20051;-57
2023/07/20 02:06:13;;;;;;;6.38;4.10;;;13.00;99.90;;;;;;5052596;28;20053;-59
2023/07/20 02:08:40;;;;;;;4.80;3.45;;;13.00;99.90;;;;;;5051291;28;20049;-58
2023/07/20 02:11:09;;;;;;;5.47;3.55;;;13.00;99.90;;;;;;5054228;28;20033;-57
2023/07/20 02:13:37;;;;;;;5.13;3.22;;;13.00;99.90;;;;;;5051656;28;20048;-58
2023/07/20 02:16:05;;;;;;;6.38;3.83;;;13.00;99.90;;;;;;5051205;28;20652;-59
2023/07/20 02:18:33;;;;;;;7.47;3.67;;;13.00;99.90;;;;;;5051747;28;20044;-57
2023/07/20 02:21:00;;;;;;;5.05;3.67;;;13.00;99.90;;;;;;5052580;28;20033;-58
2023/07/20 02:23:28;;;;;;;4.45;3.50;;;13.00;99.90;;;;;;5051122;28;20057;-58
2023/07/20 02:25:56;;;;;;;6.05;3.10;;;13.00;99.90;;;;;;5055349;28;20045;-57
2023/07/20 02:28:23;;;;;;;5.82;3.17;;;13.00;99.90;;;;;;5047741;28;20052;-57
2023/07/20 02:30:51;;;;;;;8.40;4.43;;;13.00;99.90;;;;;;5052728;28;20045;-57
2023/07/20 02:33:20;;;;;;;7.25;3.70;;;13.00;99.90;;;;;;5051847;28;20045;-57
2023/07/20 02:35:48;;;;;;;7.18;4.35;;;13.00;99.90;;;;;;5051031;28;20056;-57
2023/07/20 02:38:16;;;;;;;9.32;4.30;;;13.00;99.90;;;;;;5052608;28;20037;-57
2023/07/20 02:40:43;;;;;;;6.03;4.00;;;13.00;99.90;;;;;;5051651;28;20516;-58
2023/07/20 02:43:11;;;;;;;5.82;3.72;;;13.00;99.90;;;;;;5048795;28;20480;-57
2023/07/20 02:45:44;;;;;;;7.40;3.78;;;13.00;99.90;;;;;;5051349;28;20060;-58
2023/07/20 02:48:14;;;;;;;7.93;3.92;;;13.00;99.90;;;;;;5048743;28;20392;-58
2023/07/20 02:50:43;;;;;;;9.80;4.00;;;13.00;99.90;;;;;;5051830;28;20037;-58
2023/07/20 02:53:11;;;;;;;7.50;4.10;;;13.00;99.90;;;;;;5033540;28;20049;-58
2023/07/20 02:55:39;;;;;;;7.85;4.45;;;13.00;99.90;;;;;;5051225;28;20400;-58
2023/07/20 02:58:07;;;;;;;10.55;4.45;;;13.00;99.90;;;;;;5046771;28;20045;-58
2023/07/20 03:00:34;;;;;;;6.47;4.03;;;13.00;99.90;;;;;;5050674;28;20059;-57
2023/07/20 03:03:02;;;;;;;4.70;3.80;;;13.00;99.90;;;;;;5051895;28;20056;-57
2023/07/20 03:05:30;;;;;;;8.55;4.32;;;13.00;99.90;;;;;;5033914;28;20048;-58
2023/07/20 03:07:58;;;;;;;9.25;4.35;;;13.00;99.90;;;;;;5051826;28;20646;-59
2023/07/20 03:10:26;;;;;;;7.95;4.03;;;13.00;99.90;;;;;;5052475;28;20404;-58
2023/07/20 03:12:56;;;;;;;12.18;3.80;;;13.00;99.90;;;;;;5048878;28;20048;-57
2023/07/20 03:15:24;;;;;;;8.02;4.20;;;13.00;99.90;;;;;;5050646;28;20037;-58
2023/07/20 03:17:52;;;;;;;7.15;4.15;;;13.00;99.90;;;;;;5051187;28;20048;-57
2023/07/20 03:20:20;;;;;;;5.32;3.97;;;13.00;99.90;;;;;;5048859;28;20048;-57
2023/07/20 03:22:48;;;;;;;10.13;4.55;;;13.00;99.90;;;;;;5047962;28;20519;-57
2023/07/20 03:25:15;;;;;;;5.43;4.05;;;13.00;99.90;;;;;;5051651;28;20045;-58
2023/07/20 03:27:43;;;;;;;7.55;4.30;;;13.00;99.90;;;;;;5055160;28;20044;-57
2023/07/20 03:30:11;;;;;;;9.50;4.55;;;13.10;99.90;;;;;;5050232;28;20390;-58
2023/07/20 03:32:39;;;;;;;7.13;4.70;;;13.00;99.90;;;;;;5019524;28;20041;-57
2023/07/20 03:35:07;;;;;;;8.38;4.00;;;13.10;99.90;;;;;;5050105;28;20480;-57
2023/07/20 03:37:36;;;;;;;8.02;4.35;;;13.10;99.90;;;;;;5050323;28;20037;-57
2023/07/20 03:40:04;;;;;;;8.98;3.75;;;13.10;99.90;;;;;;5050518;28;20043;-57
2023/07/20 03:42:32;;;;;;;7.90;4.60;;;13.10;99.90;;;;;;5051346;28;20480;-57
2023/07/20 03:45:00;;;;;;;7.90;4.82;;;13.10;99.90;;;;;;5051298;28;20036;-57
2023/07/20 03:47:28;;;;;;;8.30;4.55;;;13.10;99.90;;;;;;5044750;28;20045;-58
2023/07/20 03:49:56;;;;;;;7.15;4.57;;;13.10;99.90;;;;;;5042423;28;20040;-58
2023/07/20 03:52:24;;;;;;;5.78;4.03;;;13.10;99.90;;;;;;5043595;28;20485;-58
2023/07/20 03:54:52;;;;;;;7.68;4.72;;;13.00;99.90;;;;;;5048777;28;20048;-57
2023/07/20 03:57:19;;;;;;;7.22;4.22;;;13.00;99.90;;;;;;5052970;28;20041;-60
2023/07/20 03:59:48;;;;;;;7.97;4.97;;;13.00;99.90;;;;;;5045752;28;20530;-58
2023/07/20 04:02:16;;;;;;;9.18;5.00;;;13.00;99.90;;;;;;5045871;28;20044;-58
2023/07/20 04:04:44;;;;;;;7.57;4.30;;;13.00;99.90;;;;;;5048584;28;20045;-58
2023/07/20 04:07:11;;;;;;;6.72;4.60;;;13.00;99.90;;;;;;5043916;28;20053;-57
2023/07/20 04:09:42;;;;;;;10.18;4.95;;;13.00;99.90;;;;;;5052097;28;20060;-57
2023/07/20 04:12:09;;;;;;;8.27;4.65;;;13.00;99.90;;;;;;5049744;28;20496;-57
2023/07/20 04:14:37;;;;;;;8.50;4.68;;;13.00;99.90;;;;;;5044284;28;20049;-58
2023/07/20 04:17:05;;;;;;;10.70;4.70;;;13.00;99.90;;;;;;5046498;28;20092;-57
2023/07/20 04:19:33;;;;;;;7.10;4.88;;;12.90;99.90;;;;;;5049238;28;20056;-57
2023/07/20 04:22:00;;;;;;;9.88;5.10;;;12.90;99.90;;;;;;5048451;28;20056;-58
2023/07/20 04:24:30;;;;;;;8.30;5.00;;;12.90;99.90;;;;;;5048937;28;20065;-57
2023/07/20 04:26:57;;;;;;;6.75;4.72;;;12.90;99.90;;;;;;5052183;28;20305;-57
2023/07/20 04:29:25;;;;;;;8.48;4.28;;;12.90;99.90;;;;;;5048717;28;20033;-57
2023/07/20 04:31:53;;;;;;;8.10;4.70;;;12.90;99.90;;;;;;5049104;28;20424;-57
2023/07/20 04:34:21;;;;;;;6.18;4.47;;;12.90;99.90;;;;;;5049505;28;20239;-57
2023/07/20 04:36:49;;;;;;;8.82;5.40;;;13.00;99.90;;;;;;5049547;28;20037;-57
2023/07/20 04:39:17;;;;;;;8.65;5.15;;;13.00;99.90;;;;;;5048814;28;20041;-57
2023/07/20 04:42:02;;;;;;;7.45;4.78;;;13.00;99.90;;;;;;5046230;28;20489;-57
2023/07/20 04:44:30;;;;;;;8.95;5.32;;;13.00;99.90;;;;;;5042064;28;20041;-57
2023/07/20 04:46:58;;;;;;;7.88;5.20;;;13.00;99.90;;;;;;5048988;28;20052;-58
2023/07/20 04:49:26;;;;;;;8.80;5.70;;;13.00;99.90;;;;;;5041480;28;20401;-58
2023/07/20 04:51:54;;;;;;;8.40;5.20;;;13.00;99.90;;;;;;5044176;28;20044;-58
2023/07/20 04:54:22;;;;;;;7.50;4.32;;;13.00;99.90;;;;;;5042807;28;20519;-58
2023/07/20 04:56:50;;;;;;;11.57;4.75;;;13.00;99.90;;;;;;5042367;28;20048;-59
2023/07/20 04:59:20;;;;;;;;;;;13.00;99.90;;;;;;5046094;28;20052;-58
2023/07/20 05:01:47;;;;;;;6.95;5.07;;;13.00;99.90;;;;;;5044076;28;19921;-57
2023/07/20 05:04:16;;;;;;;7.90;5.05;;;13.00;99.90;;;;;;5037812;28;20485;-58
2023/07/20 05:06:46;;;;;;;8.43;5.03;;;13.00;99.90;;;;;;5038951;28;20053;-57
2023/07/20 05:09:14;;;;;;;9.32;5.10;;;13.00;99.90;;;;;;5047829;28;20063;-58
2023/07/20 05:11:42;;;;;;;8.40;5.28;;;13.00;99.90;;;;;;5042518;28;20294;-57
2023/07/20 05:14:10;;;;;;;6.85;4.22;;;13.10;99.90;;;;;;5042464;28;20045;-58
2023/07/20 05:16:38;;;;;;;9.27;4.38;;;13.10;99.90;;;;;;5038170;28;20049;-58
2023/07/20 05:19:07;;;;;;;7.70;4.73;;;13.10;99.90;;;;;;5046180;28;20052;-58
2023/07/20 05:21:35;;;;;;;8.77;4.82;;;13.10;99.90;;;;;;5045109;28;20294;-59
2023/07/20 05:24:02;;;;;;;9.45;4.80;;;13.10;99.90;;;;;;5045353;28;20049;-58
2023/07/20 05:26:30;;;;;;;7.55;4.20;;;13.20;99.90;;;;;;5041005;28;20036;-57
2023/07/20 05:28:58;;;;;;;8.73;4.82;;;13.20;99.90;;;;;;5044871;28;20045;-58
2023/07/20 05:31:26;;;;;;;7.82;4.45;;;13.20;99.90;;;;;;5046737;28;20041;-59
2023/07/20 05:33:54;;;;;;;11.40;5.10;;;13.30;99.90;;;;;;5044613;28;20392;-58
2023/07/20 05:36:21;;;;;;;7.53;4.63;;;13.30;99.90;;;;;;5043646;28;20056;-58
2023/07/20 05:38:50;;;;;;;6.20;4.38;;;13.30;99.90;;;;;;5044665;28;20045;-58
2023/07/20 05:41:18;;;;;;;7.70;4.28;;;13.30;99.90;;;;;;5049686;28;20044;-57
2023/07/20 05:43:45;;;;;;;8.75;5.18;;;13.40;99.90;;;;;;5057660;28;20041;-58
2023/07/20 05:46:13;;;;;;;10.00;4.35;;;13.40;99.90;;;;;;5047256;28;20049;-57
2023/07/20 05:48:41;;;;;;;7.75;4.75;;;13.40;99.90;;;;;;5046935;28;20049;-60
2023/07/20 05:51:08;;;;;;;5.47;4.25;;;13.40;99.90;;;;;;5047739;28;20048;-57
2023/07/20 05:53:36;;;;;;;7.00;4.10;;;13.50;99.90;;;;;;5039967;28;20045;-58
2023/07/20 05:56:04;;;;;;;5.75;4.28;;;13.50;99.90;;;;;;5036744;28;20044;-57
2023/07/20 05:58:32;;;;;;;6.60;4.20;;;13.50;99.90;;;;;;5049660;28;20373;-58
2023/07/20 06:00:59;;;;;;;7.30;3.85;;;13.50;99.90;;;;;;5042010;28;20041;-57
2023/07/20 06:03:28;;;;;;;8.00;4.40;;;13.60;99.90;;;;;;5047513;28;20408;-58
2023/07/20 06:06:01;;;;;;;6.47;3.75;;;13.60;99.90;;;;;;5049683;28;20484;-59
2023/07/20 06:08:29;;;;;;;8.13;4.03;;;13.60;99.90;;;;;;5047786;28;20428;-58
2023/07/20 06:10:58;;;;;;;5.93;3.97;;;13.60;99.90;;;;;;5045805;28;21750;-57
2023/07/20 06:13:26;;;;;;;7.03;4.40;;;13.40;99.90;;;;;;5031225;28;20095;-58
2023/07/20 06:15:55;;;;;;;6.70;4.13;;;13.70;99.90;;;;;;5049637;28;20041;-61
2023/07/20 06:18:23;;;;;;;5.23;3.57;;;13.70;99.90;;;;;;5044093;28;20044;-57
2023/07/20 06:20:52;;;;;;;7.72;4.22;;;13.70;99.90;;;;;;5015209;28;20060;-57
2023/07/20 06:23:20;;;;;;;9.38;4.80;;;13.70;99.90;;;;;;5049302;28;20052;-58
2023/07/20 06:25:48;;;;;;;8.50;4.32;;;13.80;99.90;;;;;;5047467;28;20049;-58
2023/07/20 06:28:15;;;;;;;7.32;4.47;;;13.80;99.90;;;;;;5051517;28;20049;-58
2023/07/20 06:30:43;;;;;;;7.50;4.32;;;13.80;99.90;;;;;;5046249;28;20057;-58
2023/07/20 06:33:11;;;;;;;7.85;4.30;;;13.80;99.90;;;;;;5044327;28;20049;-58
2023/07/20 06:35:43;;;;;;;7.32;3.83;;;13.80;99.90;;;;;;5044819;28;20049;-57
2023/07/20 06:38:10;;;;;;;8.00;4.65;;;13.80;99.90;;;;;;5042298;28;20036;-58
2023/07/20 06:40:41;;;;;;;6.60;3.90;;;13.80;99.90;;;;;;5043327;28;20505;-58
2023/07/20 06:43:09;;;;;;;5.13;3.83;;;13.80;99.90;;;;;;5046432;28;20045;-58
2023/07/20 06:45:39;;;;;;;7.55;4.22;;;13.90;99.90;;;;;;5045982;28;20048;-58
2023/07/20 06:48:07;;;;;;;6.15;4.13;;;13.90;99.90;;;;;;5045092;28;20492;-58
2023/07/20 06:50:35;;;;;;;5.93;4.18;;;13.90;99.90;;;;;;5045019;28;20053;-58
2023/07/20 06:53:03;;;;;;;8.15;4.13;;;14.60;99.90;;;;;;5045063;28;20044;-58
2023/07/20 06:55:31;;;;;;;12.63;4.13;;;14.10;99.90;;;;;;5044054;28;20045;-59
2023/07/20 06:58:09;;;;;;;6.35;4.10;;;14.10;99.90;;;;;;5048552;28;20056;-58
2023/07/20 07:00:37;;;;;;;6.00;4.07;;;14.10;99.90;;;;;;5045400;28;20052;-58
2023/07/20 07:03:07;;;;;;;8.48;3.50;;;14.10;99.90;;;;;;5050640;28;20472;-57
2023/07/20 07:05:38;;;;;;;6.22;3.67;;;14.20;99.90;;;;;;5037527;28;20048;-58
2023/07/20 07:08:06;;;;;;;6.93;3.95;;;14.20;99.90;;;;;;5045069;28;20500;-59
2023/07/20 07:10:36;;;;;;;8.88;4.63;;;14.30;99.90;;;;;;5045207;28;20045;-59
2023/07/20 07:13:04;;;;;;;;;;;14.40;99.90;;;;;;5048088;28;20312;-58
2023/07/20 07:15:34;;;;;;;7.55;4.25;;;14.40;99.90;;;;;;5044850;28;19921;-58
2023/07/20 07:18:03;;;;;;;11.10;4.10;;;14.50;99.90;;;;;;5042976;28;20041;-58
2023/07/20 07:20:31;;;;;;;6.50;3.95;;;14.50;99.90;;;;;;5039090;28;20057;-58
2023/07/20 07:22:59;;;;;;;10.30;4.43;;;14.50;99.90;;;;;;5044579;28;20049;-59
2023/07/20 07:25:26;;;;;;;7.85;4.40;;;14.60;99.90;;;;;;5043761;28;20064;-58
2023/07/20 07:27:55;;;;;;;8.48;5.00;;;14.70;99.90;;;;;;5047490;28;20052;-58
2023/07/20 07:30:24;;;;;;;8.88;4.50;;;14.70;99.90;;;;;;5042335;28;20056;-58
2023/07/20 07:32:52;;;;;;;9.38;4.97;;;14.70;99.90;;;;;;5044118;28;20776;-58
2023/07/20 07:35:20;;;;;;;15.07;4.90;;;14.80;99.90;;;;;;5042729;28;20060;-59
2023/07/20 07:37:48;;;;;;;9.43;5.00;;;14.80;99.90;;;;;;5045304;28;20051;-59
2023/07/20 07:40:18;;;;;;;8.65;4.72;;;14.80;99.90;;;;;;5033285;28;20040;-58
2023/07/20 07:42:47;;;;;;;9.20;4.40;;;14.90;99.90;;;;;;5035379;28;20484;-58
2023/07/20 07:45:16;;;;;;;14.10;5.30;;;14.90;99.90;;;;;;5043634;28;20249;-58
2023/07/20 07:47:44;;;;;;;8.73;4.97;;;14.90;99.90;;;;;;5044731;28;20064;-58
2023/07/20 07:50:13;;;;;;;10.82;4.78;;;15.00;99.90;;;;;;5032524;28;20303;-58
2023/07/20 07:52:41;;;;;;;10.73;5.10;;;15.00;99.90;;;;;;5042800;28;20053;-57
2023/07/20 07:55:08;;;;;;;10.00;5.65;;;15.10;99.90;;;;;;5040808;28;20048;-58
2023/07/20 07:57:36;;;;;;;8.13;4.88;;;15.10;99.90;;;;;;5041398;28;20052;-58
2023/07/20 08:00:05;;;;;;;13.85;5.43;;;15.20;99.90;;;;;;5042305;28;20057;-58
2023/07/20 08:02:33;;;;;;;8.07;4.87;;;15.30;99.90;;;;;;5042573;28;20044;-58
2023/07/20 08:05:01;;;;;;;10.23;5.10;;;15.40;99.90;;;;;;5043703;28;20056;-58
2023/07/20 08:07:29;;;;;;;10.73;6.07;;;15.50;99.90;;;;;;5045842;28;20047;-58
2023/07/20 08:09:57;;;;;;;14.32;5.68;;;15.50;99.90;;;;;;5042399;28;20041;-59
2023/07/20 08:12:26;;;;;;;11.20;5.80;;;15.60;99.90;;;;;;5037602;28;20052;-58
2023/07/20 08:14:54;;;;;;;13.60;6.20;;;15.70;99.90;;;;;;5043817;28;20045;-60
2023/07/20 08:17:22;;;;;;;13.85;6.43;;;15.80;99.90;;;;;;5037222;28;20480;-58
2023/07/20 08:19:50;;;;;;;11.38;5.80;;;15.90;99.90;;;;;;5036345;28;20048;-58
2023/07/20 08:22:18;;;;;;;12.65;6.63;;;16.00;99.90;;;;;;5045188;28;20463;-59
2023/07/20 08:24:45;;;;;;;15.00;6.75;;;16.10;99.90;;;;;;5043972;28;20052;-59
2023/07/20 08:27:13;;;;;;;14.13;7.63;;;16.20;99.90;;;;;;5044913;28;20503;-58
2023/07/20 08:29:41;;;;;;;15.27;7.40;;;16.20;99.90;;;;;;5044839;28;20057;-58
2023/07/20 08:32:09;;;;;;;12.60;7.57;;;16.20;99.90;;;;;;5037680;28;20044;-57
2023/07/20 08:34:36;;;;;;;15.18;8.05;;;16.10;99.90;;;;;;5046153;28;20473;-60
2023/07/20 08:37:04;;;;;;;16.48;8.50;;;16.10;99.90;;;;;;5032885;28;20400;-60
2023/07/20 08:39:34;;;;;;;16.83;8.48;;;16.20;99.90;;;;;;5036709;28;20501;-60
2023/07/20 08:42:05;;;;;;;14.88;9.00;;;16.20;99.90;;;;;;5037135;28;20049;-58
2023/07/20 08:44:34;;;;;;;19.55;8.27;;;16.20;99.90;;;;;;5036829;28;20049;-58
2023/07/20 08:47:03;;;;;;;15.32;8.05;;;16.30;99.90;;;;;;5032939;28;20056;-60
2023/07/20 08:49:35;;;;;;;15.50;7.80;;;16.40;99.90;;;;;;5045603;28;20037;-58
2023/07/20 08:52:04;;;;;;;15.77;8.55;;;16.50;99.90;;;;;;5042324;28;20428;-58
2023/07/20 08:54:32;;;;;;;15.60;8.55;;;16.60;99.90;;;;;;5036208;28;20048;-62
2023/07/20 08:57:04;;;;;;;15.88;8.57;;;16.70;99.90;;;;;;5043572;28;20052;-62
2023/07/20 08:59:34;;;;;;;13.63;7.25;;;16.90;99.90;;;;;;5038926;28;20052;-60
2023/07/20 09:02:04;;;;;;;14.75;8.18;;;17.10;99.90;;;;;;5037251;28;20033;-59
2023/07/20 09:04:33;;;;;;;;;;;17.20;99.90;;;;;;5044707;28;20045;-59
2023/07/20 09:07:02;;;;;;;11.93;7.72;;;17.30;99.90;;;;;;5039545;28;19924;-60
2023/07/20 09:09:29;;;;;;;14.52;7.32;;;17.40;99.90;;;;;;5048260;28;20049;-58
2023/07/20 09:11:57;;;;;;;16.42;7.22;;;17.50;99.90;;;;;;5026219;28;20037;-58
2023/07/20 09:14:25;;;;;;;12.50;7.60;;;17.50;99.90;;;;;;5045222;28;20038;-59
2023/07/20 09:16:54;;;;;;;14.88;8.00;;;17.50;99.90;;;;;;5050141;28;20051;-59
2023/07/20 09:19:22;;;;;;;12.65;7.75;;;17.60;99.90;;;;;;5050439;28;20033;-61
2023/07/20 09:21:52;;;;;;;14.40;8.75;;;17.60;99.90;;;;;;5050304;28;20045;-59
2023/07/20 09:24:20;;;;;;;14.40;8.40;;;17.60;99.90;;;;;;5049514;28;20554;-61
2023/07/20 09:26:50;;;;;;;17.50;8.23;;;17.60;99.90;;;;;;5050665;28;20453;-61
2023/07/20 09:29:19;;;;;;;14.80;7.72;;;17.60;99.90;;;;;;5056494;28;20041;-59
2023/07/20 09:32:03;;;;;;;13.13;7.85;;;17.50;99.90;;;;;;5050326;28;20049;-62
2023/07/20 09:34:32;;;;;;;14.27;8.88;;;17.30;99.90;;;;;;5044931;28;20048;-59
2023/07/20 09:37:03;;;;;;;12.25;7.47;;;17.20;99.90;;;;;;5050392;28;20049;-62
2023/07/20 09:39:32;;;;;;;15.18;7.90;;;17.10;99.90;;;;;;5042102;28;20044;-60
2023/07/20 09:42:04;;;;;;;15.02;7.85;;;17.00;99.90;;;;;;5047695;28;20052;-60
2023/07/20 09:44:34;;;;;;;16.50;7.90;;;17.00;99.90;;;;;;5047665;28;20056;-60
2023/07/20 09:47:05;;;;;;;12.93;7.13;;;17.00;99.90;;;;;;5036342;28;20509;-58
2023/07/20 09:49:41;;;;;;;15.82;7.53;;;17.00;99.90;;;;;;5047321;28;20515;-59
2023/07/20 09:52:13;;;;;;;12.70;7.30;;;17.10;99.90;;;;;;5044343;28;20056;-58
2023/07/20 09:54:44;;;;;;;20.83;9.00;;;17.20;99.90;;;;;;5049919;28;20473;-58
2023/07/20 09:57:13;;;;;;;18.25;8.23;;;17.40;99.90;;;;;;5050056;28;20040;-61
2023/07/20 09:59:42;;;;;;;12.73;7.43;;;17.40;99.90;;;;;;5048725;28;20052;-58
2023/07/20 10:02:21;;;;;;;17.85;7.88;;;17.50;99.90;;;;;;5046242;28;20052;-59
2023/07/20 10:04:53;;;;;;;14.45;8.02;;;17.60;99.90;;;;;;5048720;28;20485;-58
2023/07/20 10:07:24;;;;;;;15.75;8.45;;;17.70;99.90;;;;;;5030059;28;20412;-58
2023/07/20 10:09:53;;;;;;;13.23;7.50;;;17.80;99.90;;;;;;5047847;28;20057;-58
2023/07/20 10:12:23;;;;;;;11.93;7.40;;;17.90;99.90;;;;;;5040741;28;20041;-58
2023/07/20 10:15:01;;;;;;;14.88;8.00;;;18.00;99.90;;;;;;5041403;28;20298;-58
2023/07/20 10:17:30;;;;;;;11.50;7.18;;;18.10;99.90;;;;;;5048065;28;20048;-58
2023/07/20 10:20:03;;;;;;;12.85;7.70;;;18.20;99.90;;;;;;5047285;28;20508;-58
2023/07/20 10:22:35;;;;;;;14.32;7.25;;;18.30;99.90;;;;;;5046678;28;20053;-58
2023/07/20 10:25:10;;;;;;;16.17;7.65;;;18.40;99.90;;;;;;5046851;28;20033;-59
2023/07/20 10:27:39;;;;;;;12.23;6.95;;;18.50;99.90;;;;;;5048939;28;20059;-58
2023/07/20 10:30:07;;;;;;;11.95;7.65;;;18.50;99.90;;;;;;5047678;28;20037;-58
2023/07/20 10:32:35;;;;;;;16.38;7.00;;;18.50;99.90;;;;;;5037964;28;20045;-59
2023/07/20 10:35:16;;;;;;;16.58;7.88;;;18.60;99.90;;;;;;5040333;28;20044;-59
2023/07/20 10:37:49;;;;;;;13.00;7.40;;;18.60;99.90;;;;;;5047137;28;20060;-58
2023/07/20 10:40:53;;;;;;;11.95;6.68;;;18.70;99.90;;;;;;5044356;28;20045;-59
2023/07/20 10:43:22;;;;;;;13.95;7.32;;;18.90;99.90;;;;;;5048995;28;20381;-58
2023/07/20 10:45:53;;;;;;;14.27;8.52;;;19.10;99.90;;;;;;5047251;28;20045;-58
2023/07/20 10:48:24;;;;;;;12.77;7.57;;;19.30;99.90;;;;;;5046422;28;20488;-59
2023/07/20 10:51:10;;;;;;;;;;;19.40;99.90;;;;;;5049269;28;20060;-58
2023/07/20 10:53:38;;;;;;;12.73;7.15;;;19.60;99.90;;;;;;5042274;28;19924;-58
2023/07/20 10:56:08;;;;;;;15.77;7.43;;;19.70;99.90;;;;;;5047359;28;20094;-59
2023/07/20 10:59:01;;;;;;;;;;;19.80;99.90;;;;;;5048306;28;20048;-58
2023/07/20 11:01:33;;;;;;;13.77;6.85;;;19.80;99.90;;;;;;5042888;28;19936;-58
2023/07/20 11:04:01;;;;;;;9.93;6.97;;;20.00;99.90;;;;;;5049128;28;20052;-59
2023/07/20 11:06:31;;;;;;;13.52;7.32;;;19.90;99.90;;;;;;5045093;28;20049;-58
2023/07/20 11:09:05;;;;;;;12.65;7.13;;;19.90;99.90;;;;;;5040238;28;20496;-58
2023/07/20 11:11:40;;;;;;;13.48;7.40;;;20.00;99.90;;;;;;5044044;28;20492;-58
2023/07/20 11:14:22;;;;;;;15.82;6.68;;;20.10;99.90;;;;;;5048132;28;20052;-58
2023/07/20 11:16:51;;;;;;;13.23;7.63;;;20.20;99.90;;;;;;5044809;28;20041;-58
2023/07/20 11:19:26;;;;;;;9.00;6.53;;;20.30;99.90;;;;;;5040223;28;20044;-59
2023/07/20 11:21:58;;;;;;;12.48;7.20;;;20.50;99.90;;;;;;5044897;28;20052;-58
2023/07/20 11:24:28;;;;;;;13.68;6.78;;;20.50;99.90;;;;;;5047693;28;20037;-59
2023/07/20 11:26:56;;;;;;;11.55;7.28;;;20.60;99.90;;;;;;5044552;28;20053;-59
2023/07/20 11:29:25;;;;;;;11.82;6.55;;;20.80;99.90;;;;;;5044392;28;20041;-58
2023/07/20 11:32:05;;;;;;;12.63;7.78;;;20.90;99.90;;;;;;5046067;28;20037;-58
2023/07/20 11:34:35;;;;;;;12.50;7.60;;;20.90;99.90;;;;;;5050194;28;20397;-59
2023/07/20 11:37:03;;;;;;;14.18;7.25;;;20.80;99.90;;;;;;5045833;28;20044;-57
2023/07/20 11:39:34;;;;;;;15.27;7.68;;;20.80;99.90;;;;;;5048521;28;20496;-58
2023/07/20 11:42:04;;;;;;;9.77;6.97;;;20.80;99.90;;;;;;5035117;28;20048;-58
2023/07/20 11:44:33;;;;;;;9.77;7.00;;;20.90;99.90;;;;;;5046615;28;20044;-58
2023/07/20 11:47:02;;;;;;;15.77;6.97;;;20.90;99.90;;;;;;5046674;28;20053;-59
2023/07/20 11:49:54;;;;;;;12.10;6.95;;;20.90;99.90;;;;;;5045007;28;20083;-60
2023/07/20 11:52:24;;;;;;;11.68;6.57;;;21.00;99.90;;;;;;5047523;28;20617;-58
2023/07/20 11:54:52;;;;;;;8.70;6.03;;;21.00;99.90;;;;;;5043154;28;20049;-61
2023/07/20 11:57:20;;;;;;;11.23;6.30;;;21.00;99.90;;;;;;5044474;28;20603;-62
2023/07/20 12:00:04;;;;;;;11.00;6.10;;;21.20;99.90;;;;;;5050664;28;20041;-60
2023/07/20 12:02:33;;;;;;;9.73;6.50;;;21.60;99.90;;;;;;5047172;28;20052;-59
2023/07/20 12:05:03;;;;;;;10.50;6.50;;;21.70;99.90;;;;;;5047403;28;20041;-59
2023/07/20 12:07:36;;;;;;;9.63;7.07;;;21.90;99.90;;;;;;5048775;28;20064;-59
2023/07/20 12:10:09;;;;;;;8.60;6.20;;;22.00;99.80;;;;;;5039187;28;20053;-61
2023/07/20 12:12:42;;;;;;;13.57;6.50;;;22.20;99.10;;;;;;5041037;28;20059;-61
2023/07/20 12:15:14;;;;;;;8.48;5.78;;;22.10;98.90;;;;;;5046400;28;20044;-59
2023/07/20 12:17:45;;;;;;;11.20;6.43;;;22.10;98.30;;;;;;5046597;28;20492;-60
2023/07/20 12:20:28;;;;;;;9.20;6.25;;;22.00;98.60;;;;;;5046639;28;20507;-59
2023/07/20 12:23:04;;;;;;;7.78;5.93;;;22.00;98.50;;;;;;5044316;28;20501;-59
2023/07/20 12:25:44;;;;;;;10.60;6.35;;;21.80;98.60;;;;;;5030764;28;20037;-59
2023/07/20 12:28:16;;;;;;;8.65;5.75;;;21.80;99.10;;;;;;5039505;28;20052;-59
2023/07/20 12:30:45;;;;;;;8.35;5.50;;;21.90;99.50;;;;;;5033090;28;20053;-58
2023/07/20 12:33:17;;;;;;;8.90;4.90;;;22.20;97.90;;;;;;5044923;28;20048;-58
2023/07/20 12:35:45;;;;;;;8.45;5.45;;;22.20;98.10;;;;;;5049048;28;20298;-59
2023/07/20 12:38:13;;;;;;;9.70;5.82;;;22.20;98.10;;;;;;5049455;28;20053;-63
2023/07/20 12:40:41;;;;;;;8.02;4.88;;;22.30;98.00;;;;;;5054832;28;20037;-62
2023/07/20 12:43:08;;;;;;;8.07;5.13;;;22.30;98.00;;;;;;5046902;28;20052;-63
2023/07/20 12:45:36;;;;;;;6.60;5.00;;;22.40;97.80;;;;;;5048409;28;20515;-63
2023/07/20 12:48:04;;;;;;;8.40;5.20;;;22.40;97.40;;;;;;5045683;28;20540;-63
2023/07/20 12:50:31;;;;;;;7.15;5.25;;;22.30;97.60;;;;;;5045724;28;20049;-60
2023/07/20 12:52:59;;;;;;;7.72;5.15;;;22.40;96.80;;;;;;5042551;28;20084;-59
2023/07/20 12:55:28;;;;;;;8.15;4.72;;;22.40;96.70;;;;;;5041397;28;20044;-64
2023/07/20 12:57:56;;;;;;;7.45;4.80;;;22.40;96.70;;;;;;5049424;28;20052;-64